Time;durP1;ratioP1;P1;durP2;ratioP2;P2;SDS_P1;SDS_P2;PMS_P1;PMS_P2;Temp;Humidity;BMP_temperature;BMP_pressure;BME280_temperature;BME280_humidity;BME280_pressure;Samples;Min_cycle;Max_cycle;Signal;HPM_P1;HPM_P2
2022/06/25 00:00:27;;;;;;;8.75;4.25;;;;;;;19.09;57.67;100145.48;1788490;79;21004;-71
2022/06/25 00:02:56;;;;;;;7.30;4.25;;;;;;;19.07;57.71;100147.67;1788298;80;21499;-71
2022/06/25 00:05:27;;;;;;;8.28;3.85;;;;;;;19.07;57.92;100152.39;1788102;80;21047;-71
2022/06/25 00:07:57;;;;;;;6.60;3.98;;;;;;;19.06;58.12;100149.32;1788172;79;21027;-71
2022/06/25 00:10:25;;;;;;;5.42;3.60;;;;;;;19.06;57.97;100150.16;1788190;80;21047;-70
2022/06/25 00:12:55;;;;;;;5.35;3.75;;;;;;;19.03;58.03;100147.06;1771240;80;21079;-69
2022/06/25 00:15:24;;;;;;;7.30;3.80;;;;;;;18.99;58.06;100145.36;1788209;80;21030;-70
2022/06/25 00:17:53;;;;;;;6.35;3.70;;;;;;;18.98;58.23;100142.29;1788273;80;21003;-70
2022/06/25 00:20:22;;;;;;;5.28;3.60;;;;;;;18.97;58.73;100151.72;1788143;80;21019;-71
2022/06/25 00:22:51;;;;;;;6.70;3.67;;;;;;;18.93;58.73;100143.62;1788330;79;21055;-70
2022/06/25 00:25:20;;;;;;;5.62;3.50;;;;;;;18.91;58.84;100143.88;1788393;80;21048;-70
2022/06/25 00:27:50;;;;;;;5.37;3.50;;;;;;;18.90;58.90;100145.52;1788323;80;21086;-70
2022/06/25 00:30:19;;;;;;;4.33;3.37;;;;;;;18.88;58.64;100140.23;1770682;80;21416;-70
2022/06/25 00:32:47;;;;;;;6.90;3.50;;;;;;;18.89;58.45;100145.23;1788052;79;20980;-70
2022/06/25 00:35:17;;;;;;;5.55;3.42;;;;;;;18.90;58.34;100149.14;1788188;80;21000;-71
2022/06/25 00:37:46;;;;;;;6.53;3.50;;;;;;;18.91;58.33;100148.59;1788003;79;21091;-71
2022/06/25 00:40:14;;;;;;;5.30;3.33;;;;;;;18.90;58.31;100141.36;1788354;80;21067;-71
2022/06/25 00:42:50;;;;;;;4.60;3.10;;;;;;;18.90;58.48;100148.30;1788054;79;21476;-70
2022/06/25 00:45:19;;;;;;;6.25;3.33;;;;;;;18.88;58.35;100149.11;1788387;79;21055;-70
2022/06/25 00:47:47;;;;;;;4.85;3.17;;;;;;;18.85;58.39;100150.98;1788318;79;21016;-70
2022/06/25 00:50:16;;;;;;;6.42;3.08;;;;;;;18.83;58.51;100155.95;1788132;79;21035;-70
2022/06/25 00:52:48;;;;;;;4.42;3.35;;;;;;;18.81;58.60;100149.81;1788142;80;21503;-71
2022/06/25 00:55:17;;;;;;;4.40;3.17;;;;;;;18.82;58.58;100155.66;1788438;80;21043;-70
2022/06/25 00:57:46;;;;;;;6.12;2.85;;;;;;;18.84;58.55;100150.69;1788230;79;21071;-70
2022/06/25 01:00:17;;;;;;;6.67;3.42;;;;;;;18.82;58.51;100154.27;1788457;80;21432;-70
2022/06/25 01:02:46;;;;;;;6.75;3.65;;;;;;;18.79;58.55;100154.79;1788242;79;21120;-70
2022/06/25 01:05:15;;;;;;;5.58;3.40;;;;;;;18.74;58.73;100160.27;1788253;80;21000;-71
2022/06/25 01:07:49;;;;;;;4.25;2.98;;;;;;;18.71;58.82;100160.79;1788222;79;21467;-71
2022/06/25 01:10:18;;;;;;;4.47;3.05;;;;;;;18.71;58.96;100160.79;1788492;80;21047;-70
2022/06/25 01:12:47;;;;;;;6.95;3.17;;;;;;;18.69;58.91;100154.95;1788236;80;21027;-70
2022/06/25 01:15:18;;;;;;;4.47;3.10;;;;;;;18.71;58.88;100166.34;1788331;80;20964;-70
2022/06/25 01:17:51;;;;;;;3.90;2.75;;;;;;;18.68;58.90;100158.81;1788160;80;20984;-71
2022/06/25 01:20:25;;;;;;;4.25;3.12;;;;;;;18.66;58.99;100161.01;1788327;80;21046;-70
2022/06/25 01:22:54;;;;;;;5.92;3.37;;;;;;;18.64;59.04;100163.20;1788158;79;20994;-69
2022/06/25 01:25:27;;;;;;;5.30;3.30;;;;;;;18.61;59.23;100162.33;1788370;80;21007;-69
2022/06/25 01:27:56;;;;;;;7.33;3.02;;;;;;;18.58;59.23;100158.65;1770102;80;21016;-69
2022/06/25 01:30:25;;;;;;;4.55;3.12;;;;;;;18.58;59.30;100161.42;1788456;80;21078;-70
2022/06/25 01:32:54;;;;;;;3.60;3.05;;;;;;;18.59;59.28;100163.09;1788432;79;21008;-69
2022/06/25 01:35:24;;;;;;;9.43;3.12;;;;;;;18.56;59.35;100166.39;1788183;80;21070;-69
2022/06/25 01:37:54;;;;;;;5.08;3.02;;;;;;;18.54;59.52;100165.80;1788169;80;21431;-69
2022/06/25 01:40:23;;;;;;;6.05;3.20;;;;;;;18.52;59.52;100161.61;1788271;79;21043;-70
2022/06/25 01:42:58;;;;;;;4.65;2.98;;;;;;;18.49;59.45;100168.50;1788204;79;21016;-70
2022/06/25 01:45:34;;;;;;;4.70;2.87;;;;;;;18.48;59.49;100166.83;1771696;80;21063;-70
2022/06/25 01:48:07;;;;;;;6.22;3.40;;;;;;;18.46;59.76;100169.56;1788222;80;21016;-70
2022/06/25 01:50:36;;;;;;;4.67;2.70;;;;;;;18.49;59.55;100170.44;1788454;80;21082;-70
2022/06/25 01:53:05;;;;;;;5.17;2.95;;;;;;;18.49;59.21;100173.22;1788245;79;21051;-70
2022/06/25 01:55:35;;;;;;;8.88;2.98;;;;;;;18.50;59.48;100179.05;1788418;79;21425;-70
2022/06/25 01:58:07;;;;;;;5.67;2.83;;;;;;;18.50;59.28;100177.13;1788414;80;21506;-71
2022/06/25 02:00:36;;;;;;;4.00;2.40;;;;;;;18.50;59.12;100171.57;1788231;80;21086;-69
2022/06/25 02:03:07;;;;;;;5.62;2.75;;;;;;;18.54;58.88;100174.67;1788169;80;21091;-70
2022/06/25 02:08:31;;;;;;;4.60;2.52;;;;;;;18.59;58.70;100172.81;1788100;79;21008;-70
2022/06/25 02:11:01;;;;;;;6.40;2.98;;;;;;;18.59;58.75;100168.65;1788127;80;21441;-71
2022/06/25 02:13:30;;;;;;;4.72;3.17;;;;;;;18.59;58.73;100167.27;1788075;80;21177;-70
2022/06/25 02:16:00;;;;;;;5.00;3.40;;;;;;;18.60;58.87;100170.88;1788205;79;21452;-70
2022/06/25 02:18:29;;;;;;;6.08;3.10;;;;;;;18.58;58.80;100169.75;1788196;80;21425;-70
2022/06/25 02:21:00;;;;;;;3.40;2.60;;;;;;;18.56;58.94;100173.33;1788216;80;21027;-70
2022/06/25 02:23:29;;;;;;;4.10;2.77;;;;;;;18.56;58.86;100179.42;1788187;80;21420;-70
2022/06/25 02:25:58;;;;;;;4.67;3.08;;;;;;;18.58;58.79;100175.84;1788083;80;21011;-70
2022/06/25 02:28:27;;;;;;;3.00;2.70;;;;;;;18.59;59.06;100179.75;1788118;80;21424;-70
2022/06/25 02:30:58;;;;;;;4.62;2.95;;;;;;;18.58;59.19;100184.17;1788149;80;20996;-70
2022/06/25 02:33:28;;;;;;;4.67;2.70;;;;;;;18.60;59.20;100179.20;1788143;80;21035;-70
2022/06/25 02:35:57;;;;;;;5.72;2.70;;;;;;;18.59;58.85;100179.75;1788138;79;21000;-70
2022/06/25 02:38:27;;;;;;;3.83;3.02;;;;;;;18.61;58.81;100178.98;1788160;79;21035;-70
2022/06/25 02:40:57;;;;;;;3.37;2.60;;;;;;;18.64;58.57;100179.85;1788185;80;21003;-70
2022/06/25 02:43:28;;;;;;;5.65;2.98;;;;;;;18.67;58.46;100178.50;1782184;80;21063;-69
2022/06/25 02:46:14;;;;;;;4.10;2.77;;;;;;;18.68;58.38;100180.18;1774363;80;21004;-70
2022/06/25 02:48:44;;;;;;;4.17;2.90;;;;;;;18.71;58.41;100178.28;1774365;80;21472;-71
2022/06/25 02:51:14;;;;;;;7.25;3.08;;;;;;;18.70;58.43;100182.15;1774581;80;21595;-70
2022/06/25 02:53:44;;;;;;;6.95;2.92;;;;;;;18.68;58.54;100183.80;1774661;80;21091;-70
2022/06/25 02:59:02;;;;;;;6.62;3.17;;;;;;;18.71;58.63;100181.60;1774616;81;20996;-69
2022/06/25 03:01:33;;;;;;;10.23;2.98;;;;;;;18.74;58.79;100187.48;1774130;80;21016;-69
2022/06/25 03:04:03;;;;;;;4.22;2.52;;;;;;;18.75;58.81;100182.77;1774448;80;21080;-70
2022/06/25 03:06:32;;;;;;;4.92;2.90;;;;;;;18.77;58.60;100184.73;1774671;80;21025;-70
2022/06/25 03:09:04;;;;;;;6.72;2.60;;;;;;;18.74;58.74;100183.86;1774568;80;21107;-70
2022/06/25 03:11:33;;;;;;;3.72;2.62;;;;;;;18.72;58.82;100184.67;1774615;80;21024;-70
2022/06/25 03:14:02;;;;;;;3.87;2.37;;;;;;;18.74;58.32;100188.03;1774545;79;21008;-69
2022/06/25 03:16:32;;;;;;;4.28;2.67;;;;;;;18.78;58.20;100192.81;1774413;80;21060;-70
2022/06/25 03:19:03;;;;;;;3.80;2.50;;;;;;;18.84;57.70;100191.78;1774433;81;21048;-70
2022/06/25 03:21:46;;;;;;;5.90;2.67;;;;;;;18.92;57.51;100189.98;1746630;81;21445;-71
2022/06/25 03:24:15;;;;;;;2.95;2.45;;;;;;;18.98;57.38;100192.27;1774437;81;21044;-70
2022/06/25 03:26:44;;;;;;;3.15;2.58;;;;;;;19.03;57.19;100195.11;1774423;81;21032;-70
2022/06/25 03:29:13;;;;;;;4.62;2.80;;;;;;;19.08;57.21;100195.17;1774779;80;20977;-70
2022/06/25 03:31:42;;;;;;;4.53;2.50;;;;;;;19.10;57.12;100197.14;1774574;80;21028;-69
2022/06/25 03:34:30;;;;;;;5.53;2.62;;;;;;;19.14;56.69;100190.52;1774713;80;20968;-69
2022/06/25 03:37:01;;;;;;;7.53;2.40;;;;;;;19.17;57.17;100192.78;1774551;80;21119;-70
2022/06/25 03:39:31;;;;;;;3.08;2.62;;;;;;;19.19;57.20;100192.81;1763607;81;21036;-69
2022/06/25 03:42:03;;;;;;;3.50;2.77;;;;;;;19.20;57.17;100194.49;1774421;80;21031;-69
2022/06/25 03:44:37;;;;;;;6.42;2.72;;;;;;;19.21;57.11;100193.39;1774252;80;21040;-70
2022/06/25 03:47:17;;;;;;;8.88;2.67;;;;;;;19.23;57.19;100198.69;1773997;80;21040;-70
2022/06/25 03:49:46;;;;;;;5.50;2.40;;;;;;;19.22;56.81;100203.41;1774417;81;21036;-71
2022/06/25 03:52:18;;;;;;;4.40;2.58;;;;;;;19.24;57.34;100201.75;1774699;80;21075;-70
2022/06/25 03:54:46;;;;;;;4.90;2.62;;;;;;;19.26;56.93;100208.73;1774313;81;21557;-70
2022/06/25 03:57:17;;;;;;;3.85;2.58;;;;;;;19.29;56.67;100216.55;1774724;81;21087;-70
2022/06/25 03:59:48;;;;;;;3.40;3.08;;;;;;;19.35;56.40;100216.60;1774096;80;21507;-69
2022/06/25 04:02:19;;;;;;;3.40;2.72;;;;;;;19.38;56.12;100220.25;1774409;80;21004;-69
2022/06/25 04:05:07;;;;;;;;;;;;;;;19.40;56.34;100216.11;1776997;81;21056;-70
2022/06/25 04:07:37;;;;;;;4.80;2.50;;;;;;;19.44;56.53;100226.16;1774554;81;20173;-69
2022/06/25 04:10:09;;;;;;;4.10;2.90;;;;;;;19.45;56.35;100226.45;1774214;80;21494;-71
2022/06/25 04:12:39;;;;;;;6.83;2.50;;;;;;;19.47;56.51;100225.09;1774366;80;21040;-69
2022/06/25 04:15:10;;;;;;;3.87;2.60;;;;;;;19.48;56.34;100228.70;1774251;80;21044;-69
2022/06/25 04:17:38;;;;;;;3.30;2.65;;;;;;;19.53;55.98;100224.11;1774387;81;21421;-70
2022/06/25 04:20:10;;;;;;;4.72;2.70;;;;;;;19.58;55.92;100226.11;1774376;80;21039;-70
2022/06/25 04:22:39;;;;;;;4.47;3.00;;;;;;;19.63;55.66;100233.11;1774322;81;21024;-70
2022/06/25 04:25:09;;;;;;;5.53;3.00;;;;;;;19.69;55.54;100228.44;1774663;79;21403;-69
2022/06/25 04:30:25;;;;;;;3.33;2.52;;;;;;;19.80;55.40;100233.00;1774645;81;21107;-71
2022/06/25 04:32:54;;;;;;;4.30;2.55;;;;;;;19.87;55.09;100241.42;1774293;80;21440;-70
2022/06/25 04:35:37;;;;;;;4.17;3.00;;;;;;;19.92;54.88;100237.85;1773191;80;21032;-70
2022/06/25 04:38:08;;;;;;;3.75;2.40;;;;;;;19.98;54.78;100241.52;1773547;80;21024;-71
2022/06/25 04:40:37;;;;;;;5.62;2.58;;;;;;;20.03;54.73;100247.97;1774544;79;21027;-70
2022/06/25 04:43:07;;;;;;;3.45;2.60;;;;;;;20.08;54.66;100247.17;1774245;80;21071;-70
2022/06/25 04:45:36;;;;;;;4.97;2.83;;;;;;;20.14;54.64;100250.30;1763465;81;21064;-70
2022/06/25 04:48:25;;;;;;;3.62;2.60;;;;;;;20.22;54.52;100249.84;1774322;80;21039;-70
2022/06/25 04:51:12;;;;;;;5.23;2.80;;;;;;;20.29;54.55;100244.89;1774905;80;21012;-71
2022/06/25 04:53:57;;;;;;;4.33;2.87;;;;;;;20.38;54.40;100247.47;1774617;81;21424;-70
2022/06/25 04:56:49;;;;;;;4.97;2.55;;;;;;;20.49;54.38;100243.70;1774573;80;21028;-70
2022/06/25 04:59:19;;;;;;;6.15;2.80;;;;;;;20.68;54.17;100248.84;1658161;86;21100;-70
2022/06/25 05:01:51;;;;;;;4.37;2.75;;;;;;;20.94;53.57;100250.70;1658165;86;21551;-69
2022/06/25 05:04:23;;;;;;;7.00;2.90;;;;;;;21.29;52.73;100260.38;1657966;86;21056;-71
2022/06/25 05:06:52;;;;;;;4.03;2.70;;;;;;;21.61;51.76;100255.52;1657893;86;21087;-71
2022/06/25 05:09:22;;;;;;;4.30;2.60;;;;;;;21.89;51.40;100257.53;1657927;86;21464;-71
2022/06/25 05:11:51;;;;;;;3.67;2.50;;;;;;;22.20;49.98;100254.29;1657967;86;21086;-71
2022/06/25 05:14:21;;;;;;;4.03;2.83;;;;;;;22.54;49.02;100258.20;1657895;86;21043;-70
2022/06/25 05:16:53;;;;;;;5.17;2.90;;;;;;;22.85;48.69;100263.80;1657893;85;21499;-72
2022/06/25 05:19:24;;;;;;;6.15;2.98;;;;;;;23.10;47.94;100256.75;1657977;86;21106;-70
2022/06/25 05:21:53;;;;;;;5.20;2.85;;;;;;;23.34;47.07;100253.59;1657966;86;21047;-71
2022/06/25 05:24:21;;;;;;;5.75;3.22;;;;;;;23.57;46.81;100258.30;1658000;86;21190;-71
2022/06/25 05:26:51;;;;;;;4.62;2.72;;;;;;;23.84;46.13;100258.71;1658130;86;21075;-72
2022/06/25 05:29:20;;;;;;;5.75;2.47;;;;;;;24.11;45.67;100260.25;1658014;86;21051;-71
2022/06/25 05:31:50;;;;;;;5.55;2.60;;;;;;;24.33;45.02;100257.87;1658157;85;21071;-70
2022/06/25 05:34:19;;;;;;;4.75;2.77;;;;;;;24.54;44.60;100256.56;1658115;86;21011;-71
2022/06/25 05:36:48;;;;;;;6.08;2.87;;;;;;;24.79;43.77;100261.12;1657881;86;21456;-71
2022/06/25 05:39:17;;;;;;;3.70;2.47;;;;;;;25.06;43.55;100264.79;1658037;86;21079;-71
2022/06/25 05:41:45;;;;;;;3.52;2.47;;;;;;;25.38;42.63;100272.58;1658045;86;21070;-73
2022/06/25 05:44:14;;;;;;;4.17;2.67;;;;;;;25.73;42.37;100264.86;1658120;86;21427;-72
2022/06/25 05:46:43;;;;;;;7.40;2.70;;;;;;;26.05;41.75;100268.36;1658103;86;21495;-71
2022/06/25 05:49:12;;;;;;;4.47;2.80;;;;;;;26.26;41.16;100270.28;1658049;85;21106;-71
2022/06/25 05:51:41;;;;;;;5.58;3.10;;;;;;;26.43;40.63;100270.59;1658316;86;21039;-73
2022/06/25 05:54:10;;;;;;;4.55;2.98;;;;;;;26.59;40.60;100274.81;1658174;85;21043;-70
2022/06/25 05:56:40;;;;;;;4.83;2.50;;;;;;;26.81;40.35;100275.02;1658290;86;21158;-72
2022/06/25 05:59:09;;;;;;;4.65;2.87;;;;;;;27.03;40.33;100273.52;1660472;86;21045;-71
2022/06/25 06:01:38;;;;;;;5.00;2.87;;;;;;;27.29;39.74;100269.06;1660958;86;21008;-71
2022/06/25 06:04:06;;;;;;;8.18;3.30;;;;;;;27.47;38.84;100273.78;1660955;86;21624;-71
2022/06/25 06:06:37;;;;;;;4.15;2.83;;;;;;;27.48;39.24;100274.61;1660829;86;21467;-71
2022/06/25 06:09:08;;;;;;;4.97;2.77;;;;;;;27.48;39.24;100274.61;1660823;86;21491;-71
2022/06/25 06:11:39;;;;;;;4.67;2.70;;;;;;;27.58;38.91;100280.59;1639986;86;21078;-71
2022/06/25 06:14:08;;;;;;;5.33;2.60;;;;;;;27.82;38.12;100277.00;1640045;87;21082;-73
2022/06/25 06:16:38;;;;;;;3.50;2.77;;;;;;;28.23;37.08;100286.81;1639942;86;21035;-73
2022/06/25 06:19:08;;;;;;;3.90;2.58;;;;;;;28.23;37.08;100286.81;1640047;87;21099;-72
2022/06/25 06:21:37;;;;;;;4.90;2.80;;;;;;;28.45;36.68;100276.70;1639978;86;21252;-72
2022/06/25 06:24:07;;;;;;;5.87;2.70;;;;;;;28.69;35.99;100280.89;1640012;87;21134;-71
2022/06/25 06:26:36;;;;;;;3.10;2.47;;;;;;;28.78;35.25;100273.90;1639901;87;21501;-72
2022/06/25 06:29:06;;;;;;;5.42;2.50;;;;;;;28.81;34.70;100276.66;1644466;86;21516;-72
2022/06/25 06:31:35;;;;;;;3.55;2.37;;;;;;;28.78;34.85;100271.08;1660981;86;21091;-71
2022/06/25 06:34:07;;;;;;;4.12;2.60;;;;;;;28.85;34.50;100275.72;1660901;86;21019;-72
2022/06/25 06:36:36;;;;;;;4.47;2.80;;;;;;;28.86;34.36;100278.80;1660926;86;21082;-73
2022/06/25 06:39:05;;;;;;;3.05;2.47;;;;;;;28.93;33.88;100274.09;1661092;86;21064;-73
2022/06/25 06:41:34;;;;;;;3.22;2.37;;;;;;;28.85;34.37;100270.66;1660819;86;21114;-72
2022/06/25 06:44:03;;;;;;;3.50;2.35;;;;;;;28.90;34.18;100272.76;1661059;86;21447;-71
2022/06/25 06:46:34;;;;;;;3.55;2.30;;;;;;;28.92;34.04;100272.44;1660847;86;21077;-72
2022/06/25 06:49:03;;;;;;;2.67;2.30;;;;;;;28.92;33.97;100280.32;1660720;86;21071;-71
2022/06/25 06:51:32;;;;;;;4.75;2.67;;;;;;;28.93;33.65;100281.98;1660867;86;21086;-73
2022/06/25 06:54:00;;;;;;;5.35;2.60;;;;;;;28.94;33.79;100276.59;1660935;86;21079;-72
2022/06/25 06:56:30;;;;;;;3.25;2.20;;;;;;;29.07;33.41;100281.89;1660818;86;21106;-72
2022/06/25 06:58:59;;;;;;;3.47;2.50;;;;;;;29.15;33.19;100283.92;1658875;86;21564;-72
2022/06/25 07:01:28;;;;;;;3.47;2.50;;;;;;;29.07;33.02;100277.66;1657980;86;21106;-73
2022/06/25 07:03:58;;;;;;;4.65;2.17;;;;;;;28.88;33.76;100281.29;1658052;86;21071;-71
2022/06/25 07:06:27;;;;;;;4.35;2.45;;;;;;;28.76;33.63;100277.62;1658087;86;21059;-72
2022/06/25 07:08:56;;;;;;;6.55;2.58;;;;;;;28.76;33.42;100286.66;1657959;86;21019;-72
2022/06/25 07:11:29;;;;;;;3.85;2.20;;;;;;;28.79;33.59;100291.66;1658045;86;21035;-73
2022/06/25 07:14:00;;;;;;;3.55;2.50;;;;;;;28.83;33.12;100282.80;1658088;86;21075;-71
2022/06/25 07:16:29;;;;;;;4.62;2.30;;;;;;;28.80;33.38;100292.74;1658065;85;21087;-71
2022/06/25 07:19:00;;;;;;;4.58;2.30;;;;;;;28.73;32.72;100286.14;1658120;86;21503;-72
2022/06/25 07:21:29;;;;;;;4.03;2.05;;;;;;;28.60;32.86;100284.20;1658118;85;21574;-72
2022/06/25 07:23:58;;;;;;;5.22;2.10;;;;;;;28.52;32.98;100284.97;1658016;86;21083;-72
2022/06/25 07:26:27;;;;;;;4.45;2.00;;;;;;;28.52;32.41;100283.56;1658199;86;21494;-72
2022/06/25 07:28:56;;;;;;;2.80;2.00;;;;;;;28.47;32.66;100288.49;1658034;86;21032;-72
2022/06/25 07:31:25;;;;;;;7.90;2.65;;;;;;;28.46;32.80;100284.01;1658011;86;21194;-72
2022/06/25 07:33:53;;;;;;;4.67;2.10;;;;;;;28.79;32.38;100281.20;1658015;86;21011;-71
2022/06/25 07:36:22;;;;;;;5.58;2.17;;;;;;;28.86;32.33;100283.59;1657898;86;21565;-72
2022/06/25 07:38:52;;;;;;;4.28;2.30;;;;;;;28.75;32.37;100286.40;1657937;86;21102;-72
2022/06/25 07:41:21;;;;;;;3.55;2.12;;;;;;;28.75;32.14;100280.76;1658225;85;21032;-72
2022/06/25 07:43:50;;;;;;;8.90;2.30;;;;;;;28.62;32.22;100279.68;1657931;86;21039;-73
2022/06/25 07:46:19;;;;;;;3.62;1.87;;;;;;;28.61;32.49;100284.48;1658003;86;21074;-71
2022/06/25 07:48:48;;;;;;;3.40;1.80;;;;;;;28.79;32.44;100284.60;1657959;85;21023;-72
2022/06/25 07:54:04;;;;;;;3.08;1.92;;;;;;;28.99;31.14;100283.51;1657069;85;21055;-75
2022/06/25 07:56:33;;;;;;;4.72;2.17;;;;;;;28.88;31.26;100280.71;1645269;86;21503;-71
2022/06/25 07:59:01;;;;;;;3.52;1.95;;;;;;;28.88;31.26;100280.71;1632722;87;21463;-71
2022/06/25 08:01:31;;;;;;;4.80;2.10;;;;;;;28.91;31.53;100280.64;1646754;86;21549;-64
2022/06/25 08:04:00;;;;;;;5.80;1.95;;;;;;;29.02;31.41;100287.09;1660750;86;21022;-63
2022/06/25 08:06:30;;;;;;;3.42;2.15;;;;;;;29.10;31.52;100286.89;1660851;86;21066;-64
2022/06/25 08:09:00;;;;;;;5.12;2.02;;;;;;;29.20;31.39;100293.66;1660873;86;21106;-66
2022/06/25 08:11:29;;;;;;;4.10;2.05;;;;;;;29.19;31.42;100289.75;1660824;86;21072;-64
2022/06/25 08:13:58;;;;;;;3.80;2.02;;;;;;;29.14;31.71;100286.49;1660592;86;21519;-65
2022/06/25 08:16:27;;;;;;;2.10;1.90;;;;;;;29.26;31.27;100281.64;1660886;86;21117;-63
2022/06/25 08:18:57;;;;;;;6.65;2.20;;;;;;;29.48;30.76;100284.45;1660616;86;21494;-63
2022/06/25 08:21:27;;;;;;;3.10;1.95;;;;;;;29.93;30.38;100287.92;1660750;86;21068;-62
2022/06/25 08:23:56;;;;;;;3.20;2.10;;;;;;;30.22;30.51;100290.72;1660726;86;21081;-63
2022/06/25 08:26:26;;;;;;;3.42;1.90;;;;;;;30.44;29.70;100286.89;1660608;86;21050;-64
2022/06/25 08:28:54;;;;;;;4.33;2.08;;;;;;;30.61;29.44;100288.94;1660786;86;21145;-63
2022/06/25 08:31:24;;;;;;;2.45;2.05;;;;;;;30.71;29.48;100285.77;1660695;86;21057;-62
2022/06/25 08:33:53;;;;;;;2.77;2.10;;;;;;;31.03;29.34;100278.11;1660885;86;21057;-65
2022/06/25 08:36:22;;;;;;;4.37;2.45;;;;;;;31.46;29.04;100280.83;1660939;86;21121;-63
2022/06/25 08:38:51;;;;;;;5.62;2.15;;;;;;;31.59;28.79;100280.34;1660828;86;21056;-62
2022/06/25 08:41:20;;;;;;;5.72;2.37;;;;;;;31.66;28.23;100274.14;1660627;86;20998;-64
2022/06/25 08:43:50;;;;;;;2.70;2.08;;;;;;;31.68;28.25;100276.88;1660714;86;21042;-61
2022/06/25 08:46:19;;;;;;;6.60;2.62;;;;;;;31.62;28.05;100274.00;1660619;86;21141;-61
2022/06/25 08:48:50;;;;;;;3.67;2.08;;;;;;;31.46;28.04;100283.66;1660856;86;21093;-61
2022/06/25 08:51:19;;;;;;;3.40;2.22;;;;;;;31.31;28.53;100280.56;1660728;86;21094;-62
2022/06/25 08:53:49;;;;;;;3.35;2.25;;;;;;;31.32;28.48;100278.81;1660646;86;21078;-61
2022/06/25 08:56:18;;;;;;;6.00;2.20;;;;;;;31.32;28.93;100283.64;1660658;86;21541;-62
2022/06/25 08:58:48;;;;;;;3.42;2.05;;;;;;;31.40;28.63;100287.02;1668219;85;21563;-64
2022/06/25 09:01:19;;;;;;;7.87;2.62;;;;;;;31.42;28.72;100278.43;1677770;85;21051;-62
2022/06/25 09:03:48;;;;;;;2.20;1.87;;;;;;;31.40;28.86;100278.53;1687723;85;21082;-63
2022/06/25 09:06:18;;;;;;;8.25;2.60;;;;;;;31.33;28.89;100276.81;1687871;85;21483;-62
2022/06/25 09:09:06;;;;;;;4.62;2.25;;;;;;;31.15;28.99;100271.19;1687792;85;21097;-66
2022/06/25 09:12:00;;;;;;;3.50;2.10;;;;;;;30.97;28.96;100270.14;1687471;85;21491;-65
2022/06/25 09:14:30;;;;;;;2.62;2.00;;;;;;;30.62;29.30;100280.12;1684979;85;21070;-64
2022/06/25 09:17:12;;;;;;;5.28;2.33;;;;;;;30.29;30.01;100279.75;1687911;85;21483;-62
2022/06/25 09:19:48;;;;;;;2.67;2.10;;;;;;;30.04;30.53;100277.16;1687908;85;21030;-60
2022/06/25 09:22:22;;;;;;;3.33;1.90;;;;;;;29.92;30.57;100283.43;1687997;84;21038;-62
2022/06/25 09:24:58;;;;;;;6.40;2.65;;;;;;;29.90;30.65;100282.89;1688070;85;21074;-67
2022/06/25 09:27:36;;;;;;;;;;;;;;;29.78;30.93;100280.46;1686539;85;21089;-62
2022/06/25 09:30:14;;;;;;;4.37;2.00;;;;;;;29.68;30.75;100278.78;1665655;86;20172;-61
2022/06/25 09:32:54;;;;;;;4.08;2.17;;;;;;;29.58;30.89;100284.73;1665713;86;21067;-62
2022/06/25 09:35:37;;;;;;;5.85;2.42;;;;;;;29.44;31.22;100285.44;1665459;86;21098;-61
2022/06/25 09:38:16;;;;;;;4.87;2.40;;;;;;;29.28;31.45;100287.83;1666027;86;21074;-62
2022/06/25 09:40:52;;;;;;;5.80;2.37;;;;;;;29.06;31.50;100284.45;1665546;86;21637;-62
2022/06/25 09:43:22;;;;;;;3.90;2.27;;;;;;;28.80;31.96;100286.27;1665691;86;21148;-63
2022/06/25 09:45:54;;;;;;;3.37;2.12;;;;;;;28.58;32.37;100271.00;1665454;86;21098;-62
2022/06/25 09:48:24;;;;;;;5.83;2.30;;;;;;;28.58;32.37;100271.00;1665516;86;21178;-61
2022/06/25 09:51:19;;;;;;;3.27;2.12;;;;;;;28.41;32.58;100272.28;1665469;86;21047;-62
2022/06/25 09:53:56;;;;;;;2.90;1.95;;;;;;;28.33;32.81;100290.80;1665824;86;21098;-63
2022/06/25 09:56:32;;;;;;;3.00;2.30;;;;;;;28.09;33.07;100280.36;1667301;85;21075;-61
2022/06/25 09:59:01;;;;;;;3.58;2.27;;;;;;;27.89;33.38;100276.00;1664619;86;21103;-62
2022/06/25 10:01:33;;;;;;;3.42;2.22;;;;;;;27.83;33.70;100286.28;1641935;86;21529;-61
2022/06/25 10:04:04;;;;;;;3.12;2.27;;;;;;;27.83;33.67;100280.65;1631048;86;21108;-62
2022/06/25 10:06:36;;;;;;;3.37;2.20;;;;;;;27.84;33.82;100284.56;1630792;88;21502;-61
2022/06/25 10:09:06;;;;;;;3.22;2.20;;;;;;;27.90;33.54;100284.70;1630932;88;21060;-61
2022/06/25 10:11:37;;;;;;;3.87;2.05;;;;;;;27.93;33.63;100278.44;1654956;86;21475;-62
2022/06/25 10:14:06;;;;;;;3.08;1.90;;;;;;;27.92;33.29;100278.17;1658101;86;21102;-61
2022/06/25 10:16:35;;;;;;;2.65;2.05;;;;;;;27.88;33.47;100279.96;1657833;86;21471;-62
2022/06/25 10:19:04;;;;;;;5.03;2.30;;;;;;;27.84;33.82;100273.87;1657987;85;21151;-61
2022/06/25 10:21:33;;;;;;;3.08;2.33;;;;;;;27.86;33.37;100269.59;1657858;86;21046;-59
2022/06/25 10:24:04;;;;;;;7.17;2.60;;;;;;;27.92;33.01;100272.55;1657860;86;21091;-61
2022/06/25 10:26:35;;;;;;;4.87;2.20;;;;;;;27.86;33.38;100262.55;1657722;86;21504;-61
2022/06/25 10:29:28;;;;;;;4.08;2.37;;;;;;;27.85;33.46;100270.73;1657935;86;21043;-62
2022/06/25 10:32:16;;;;;;;3.98;2.00;;;;;;;27.82;33.56;100267.14;1657720;86;21564;-61
2022/06/25 10:34:57;;;;;;;6.72;2.20;;;;;;;27.89;33.40;100260.50;1658157;86;21154;-61
2022/06/25 10:37:27;;;;;;;7.70;2.30;;;;;;;27.89;33.32;100264.73;1658178;85;21509;-60
2022/06/25 10:39:56;;;;;;;2.72;2.12;;;;;;;27.84;33.29;100271.05;1657752;85;21121;-61
2022/06/25 10:45:26;;;;;;;2.85;2.12;;;;;;;27.69;33.81;100265.19;1657944;86;21031;-61
2022/06/25 10:47:57;;;;;;;5.85;2.00;;;;;;;27.77;33.44;100268.66;1657634;85;21556;-62
2022/06/25 10:50:31;;;;;;;3.10;2.45;;;;;;;27.84;33.61;100257.80;1681727;85;21047;-61
2022/06/25 10:53:11;;;;;;;3.30;2.02;;;;;;;27.91;32.98;100265.82;1657839;85;21090;-63
2022/06/25 10:55:55;;;;;;;2.20;2.00;;;;;;;27.92;32.98;100263.27;1663754;85;21039;-62
2022/06/25 10:58:26;;;;;;;2.55;2.10;;;;;;;27.90;32.65;100268.38;1657768;86;21020;-64
2022/06/25 11:01:02;;;;;;;3.90;2.02;;;;;;;27.81;32.51;100266.88;1678157;84;21044;-63
2022/06/25 11:03:38;;;;;;;2.58;2.35;;;;;;;27.70;32.73;100266.28;1695902;84;21488;-63
2022/06/25 11:06:29;;;;;;;3.45;2.17;;;;;;;27.63;32.91;100270.09;1696107;84;21516;-67
2022/06/25 11:09:12;;;;;;;3.30;1.92;;;;;;;27.50;32.40;100262.47;1696031;84;21006;-66
2022/06/25 11:11:43;;;;;;;3.70;2.85;;;;;;;27.42;32.22;100258.98;1695988;84;21489;-73
2022/06/25 11:14:22;;;;;;;4.22;2.70;;;;;;;27.45;32.19;100255.54;1695936;84;21544;-73
2022/06/25 11:16:52;;;;;;;3.75;2.20;;;;;;;27.45;33.41;100256.38;1696188;84;21083;-75
2022/06/25 11:19:25;;;;;;;3.08;2.15;;;;;;;27.54;33.53;100261.27;1695693;84;21459;-76
2022/06/25 11:21:54;;;;;;;5.62;2.20;;;;;;;27.56;33.38;100260.38;1696046;84;21519;-74
2022/06/25 11:24:26;;;;;;;3.40;2.10;;;;;;;27.55;33.62;100254.48;1696003;84;21102;-72
2022/06/25 11:29:53;;;;;;;4.28;1.95;;;;;;;27.67;33.37;100253.41;1695859;84;21046;-74
2022/06/25 11:32:27;;;;;;;3.17;1.82;;;;;;;27.74;33.13;100259.44;1695868;84;21078;-74
2022/06/25 11:34:59;;;;;;;4.53;2.08;;;;;;;27.82;32.50;100251.66;1695836;84;21038;-73
2022/06/25 11:37:32;;;;;;;3.52;2.00;;;;;;;27.87;32.46;100258.58;1696173;84;21038;-74
2022/06/25 11:40:02;;;;;;;2.37;1.80;;;;;;;27.85;31.78;100258.06;1695867;84;21039;-74
2022/06/25 11:42:33;;;;;;;3.25;2.02;;;;;;;27.85;32.60;100256.66;1696318;84;21070;-67
2022/06/25 11:45:01;;;;;;;2.58;2.00;;;;;;;27.85;32.20;100256.66;1695775;84;21074;-66
2022/06/25 11:47:31;;;;;;;2.50;2.20;;;;;;;27.85;32.89;100260.87;1695743;84;21034;-66
2022/06/25 11:50:10;;;;;;;7.42;2.20;;;;;;;27.79;33.31;100256.52;1668805;84;21467;-66
2022/06/25 11:52:43;;;;;;;4.40;2.08;;;;;;;27.72;33.52;100250.48;1670037;86;21503;-66
2022/06/25 11:55:12;;;;;;;2.10;1.87;;;;;;;27.65;33.48;100257.95;1670111;84;21037;-66
2022/06/25 11:57:45;;;;;;;2.87;2.12;;;;;;;27.63;33.13;100260.23;1669909;84;21065;-69
2022/06/25 12:00:15;;;;;;;7.67;2.67;;;;;;;27.60;33.13;100252.39;1661925;86;21486;-68
2022/06/25 12:02:44;;;;;;;3.12;2.17;;;;;;;27.58;33.29;100246.82;1630329;87;21047;-68